createdAt,value
2022-11-08T00:02:03.906Z,10.40
2022-11-08T00:04:32.062Z,10.30
2022-11-08T00:07:13.703Z,10.20
2022-11-08T00:09:55.660Z,10.20
2022-11-08T00:12:37.479Z,10.10
2022-11-08T00:15:08.108Z,10.00
2022-11-08T00:17:36.220Z,9.90
2022-11-08T00:20:05.313Z,9.90
2022-11-08T00:22:33.040Z,9.90
2022-11-08T00:25:00.763Z,9.90
2022-11-08T00:27:28.852Z,10.00
2022-11-08T00:29:56.602Z,9.90
2022-11-08T00:32:27.235Z,9.90
2022-11-08T00:34:55.061Z,9.90
2022-11-08T00:37:23.681Z,10.00
2022-11-08T00:39:51.472Z,10.10
2022-11-08T00:42:19.179Z,10.20
2022-11-08T00:44:47.045Z,10.20
2022-11-08T00:47:14.740Z,10.10
2022-11-08T00:49:43.732Z,10.10
2022-11-08T00:52:11.464Z,10.20
2022-11-08T00:54:39.129Z,10.20
2022-11-08T00:57:07.109Z,10.20
2022-11-08T00:59:34.841Z,10.30
2022-11-08T01:02:02.741Z,10.30
2022-11-08T01:04:30.542Z,10.30
2022-11-08T01:06:59.540Z,10.30
2022-11-08T01:09:27.329Z,10.30
2022-11-08T01:11:55.029Z,10.30
2022-11-08T01:14:22.725Z,10.10
2022-11-08T01:16:50.476Z,10.10
2022-11-08T01:19:18.193Z,10.00
2022-11-08T01:21:45.881Z,10.00
2022-11-08T01:24:15.128Z,9.90
2022-11-08T01:26:42.865Z,9.80
2022-11-08T01:29:10.573Z,9.70
2022-11-08T01:31:38.272Z,9.70
2022-11-08T01:34:06.000Z,9.50
2022-11-08T01:36:33.780Z,9.30
2022-11-08T01:39:01.435Z,9.20
2022-11-08T01:41:30.485Z,9.10
2022-11-08T01:43:59.894Z,9.10
2022-11-08T01:46:43.134Z,9.20
2022-11-08T01:49:21.349Z,9.20
2022-11-08T01:51:54.152Z,9.30
2022-11-08T01:54:28.520Z,9.40
2022-11-08T01:56:59.368Z,9.40
2022-11-08T01:59:27.445Z,9.40
2022-11-08T02:01:56.125Z,9.50
2022-11-08T02:04:23.945Z,9.50
2022-11-08T02:06:52.161Z,9.50
2022-11-08T02:09:20.276Z,9.50
2022-11-08T02:11:49.539Z,9.40
2022-11-08T02:14:19.255Z,9.50
2022-11-08T02:16:47.079Z,9.40
2022-11-08T02:19:23.552Z,9.40
2022-11-08T02:21:56.154Z,9.30
2022-11-08T02:24:25.195Z,9.20
2022-11-08T02:26:53.952Z,9.10
2022-11-08T02:29:25.632Z,8.90
2022-11-08T02:31:53.586Z,8.80
2022-11-08T02:34:24.502Z,8.90
2022-11-08T02:36:52.231Z,9.00
2022-11-08T02:39:19.987Z,9.00
2022-11-08T02:41:49.000Z,9.10
2022-11-08T02:44:16.686Z,9.10
2022-11-08T02:46:44.407Z,9.10
2022-11-08T02:49:12.252Z,9.10
2022-11-08T02:51:39.952Z,9.20
2022-11-08T02:54:07.880Z,9.30
2022-11-08T02:56:35.628Z,9.40
2022-11-08T02:59:06.025Z,9.50
2022-11-08T03:01:33.854Z,9.60
2022-11-08T03:04:01.711Z,9.60
2022-11-08T03:06:29.443Z,9.50
2022-11-08T03:08:57.108Z,9.50
2022-11-08T03:11:24.810Z,9.60
2022-11-08T03:13:52.507Z,9.40
2022-11-08T03:16:21.592Z,9.20
2022-11-08T03:18:49.302Z,9.10
2022-11-08T03:21:16.974Z,8.80
2022-11-08T03:23:44.675Z,8.70
2022-11-08T03:26:12.401Z,8.70
2022-11-08T03:28:40.082Z,8.70
2022-11-08T03:31:08.827Z,8.70
2022-11-08T03:33:37.882Z,8.60
2022-11-08T03:36:06.052Z,8.50
2022-11-08T03:38:33.910Z,8.40
2022-11-08T03:41:01.609Z,8.40
2022-11-08T03:43:29.273Z,8.40
2022-11-08T03:45:56.946Z,8.30
2022-11-08T03:48:24.631Z,8.20
2022-11-08T03:50:53.612Z,8.20
2022-11-08T03:53:21.335Z,8.20
2022-11-08T03:55:49.050Z,8.00
2022-11-08T03:58:17.392Z,8.00
2022-11-08T04:00:45.366Z,8.00
2022-11-08T04:03:13.067Z,8.00
2022-11-08T04:05:40.786Z,8.00
2022-11-08T04:08:09.812Z,8.00
2022-11-08T04:10:37.505Z,8.00
2022-11-08T04:13:19.292Z,7.90
2022-11-08T04:15:53.039Z,7.90
2022-11-08T04:18:34.818Z,7.80
2022-11-08T04:21:16.530Z,7.80
2022-11-08T04:23:46.250Z,7.70
2022-11-08T04:26:14.317Z,7.70
2022-11-08T04:28:42.683Z,7.70
2022-11-08T04:31:11.870Z,7.60
2022-11-08T04:33:39.551Z,7.60
2022-11-08T04:36:10.181Z,7.60
2022-11-08T04:38:37.980Z,7.50
2022-11-08T04:41:08.727Z,7.50
2022-11-08T04:43:36.618Z,7.50
2022-11-08T04:46:06.328Z,7.50
2022-11-08T04:48:34.316Z,7.40
2022-11-08T04:51:04.210Z,7.40
2022-11-08T04:53:31.939Z,7.50
2022-11-08T04:56:02.580Z,7.50
2022-11-08T04:58:34.406Z,7.50
2022-11-08T05:01:02.721Z,7.60
2022-11-08T05:03:30.711Z,7.70
2022-11-08T05:06:01.824Z,7.90
2022-11-08T05:08:29.710Z,7.90
2022-11-08T05:11:02.374Z,7.80
2022-11-08T05:13:31.515Z,7.60
2022-11-08T05:16:01.767Z,7.50
2022-11-08T05:18:29.818Z,7.50
2022-11-08T05:21:12.886Z,7.40
2022-11-08T05:23:40.672Z,7.50
2022-11-08T05:26:08.712Z,7.50
2022-11-08T05:28:38.004Z,7.50
2022-11-08T05:31:05.966Z,7.50
2022-11-08T05:33:34.034Z,7.60
2022-11-08T05:36:05.823Z,7.50
2022-11-08T05:38:34.440Z,7.50
2022-11-08T05:41:04.271Z,7.40
2022-11-08T05:43:32.487Z,7.40
2022-11-08T05:46:01.552Z,7.50
2022-11-08T05:48:29.503Z,7.60
2022-11-08T05:50:57.673Z,7.60
2022-11-08T05:53:25.432Z,7.50
2022-11-08T05:55:58.145Z,7.70
2022-11-08T05:58:26.053Z,7.80
2022-11-08T06:01:01.730Z,7.80
2022-11-08T06:03:30.530Z,7.80
2022-11-08T06:06:02.850Z,7.90
2022-11-08T06:08:30.748Z,8.00
2022-11-08T06:11:03.229Z,8.00
2022-11-08T06:13:31.368Z,7.90
2022-11-08T06:16:02.696Z,8.00
2022-11-08T06:18:30.881Z,7.80
2022-11-08T06:20:59.546Z,7.80
2022-11-08T06:23:27.867Z,7.80
2022-11-08T06:25:56.256Z,7.80
2022-11-08T06:28:24.372Z,7.80
2022-11-08T06:30:52.604Z,7.70
2022-11-08T06:33:22.598Z,7.70
2022-11-08T06:35:50.704Z,7.60
2022-11-08T06:38:18.619Z,7.50
2022-11-08T06:40:46.303Z,7.40
2022-11-08T06:43:19.352Z,7.40
2022-11-08T06:45:47.748Z,7.40
2022-11-08T06:48:15.477Z,7.50
2022-11-08T06:50:45.038Z,7.50
2022-11-08T06:53:14.303Z,7.50
2022-11-08T06:55:42.935Z,7.60
2022-11-08T06:58:11.528Z,7.60
2022-11-08T07:00:39.654Z,7.60
2022-11-08T07:03:07.449Z,7.70
2022-11-08T07:05:36.471Z,7.70
2022-11-08T07:08:05.978Z,7.70
2022-11-08T07:10:34.270Z,7.80
2022-11-08T07:13:04.419Z,8.00
2022-11-08T07:15:33.649Z,8.00
2022-11-08T07:18:02.532Z,8.20
2022-11-08T07:20:30.611Z,8.20
2022-11-08T07:22:59.054Z,8.30
2022-11-08T07:25:29.211Z,8.40
2022-11-08T07:27:57.741Z,8.60
2022-11-08T07:30:25.549Z,8.70
2022-11-08T07:32:53.293Z,8.90
2022-11-08T07:35:21.142Z,9.00
2022-11-08T07:37:51.556Z,9.40
2022-11-08T07:40:19.500Z,9.60
2022-11-08T07:45:36.273Z,9.80
2022-11-08T07:48:11.008Z,9.80
2022-11-08T07:50:39.608Z,10.00
2022-11-08T07:53:09.575Z,10.10
2022-11-08T07:55:37.960Z,10.20
2022-11-08T07:58:07.608Z,10.30
2022-11-08T08:00:40.483Z,10.20
2022-11-08T08:03:11.469Z,10.20
2022-11-08T08:05:44.764Z,10.30
2022-11-08T08:08:15.183Z,10.50
2022-11-08T08:10:47.372Z,10.60
2022-11-08T08:13:16.956Z,10.80
2022-11-08T08:15:48.451Z,10.90
2022-11-08T08:18:17.288Z,11.00
2022-11-08T08:20:46.976Z,11.00
2022-11-08T08:23:15.010Z,11.10
2022-11-08T08:25:42.849Z,11.30
2022-11-08T08:28:10.952Z,11.50
2022-11-08T08:30:40.705Z,11.50
2022-11-08T08:36:00.647Z,11.20
2022-11-08T08:38:28.377Z,11.20
2022-11-08T08:40:56.048Z,11.30
2022-11-08T08:43:23.750Z,11.50
2022-11-08T08:45:54.169Z,11.70
2022-11-08T08:48:22.310Z,11.90
2022-11-08T08:50:49.993Z,12.10
2022-11-08T08:53:18.053Z,12.20
2022-11-08T08:55:47.854Z,12.50
2022-11-08T08:58:15.722Z,12.80
2022-11-08T09:03:34.542Z,13.60
2022-11-08T09:06:03.161Z,13.90
2022-11-08T09:08:31.482Z,14.20
2022-11-08T09:11:01.260Z,14.80
2022-11-08T09:13:32.322Z,15.00
2022-11-08T09:16:01.640Z,15.20
2022-11-08T09:18:29.599Z,15.10
2022-11-08T09:20:58.978Z,14.80
2022-11-08T09:23:27.523Z,14.60
2022-11-08T09:25:58.386Z,14.50
2022-11-08T09:28:30.924Z,14.40
2022-11-08T09:31:02.509Z,14.30
2022-11-08T09:33:30.383Z,14.20
2022-11-08T09:36:01.907Z,14.10
2022-11-08T09:38:29.992Z,14.00
2022-11-08T09:41:14.908Z,14.00
2022-11-08T09:43:58.683Z,14.00
2022-11-08T09:46:35.530Z,14.10
2022-11-08T09:49:07.553Z,14.30
2022-11-08T09:51:37.269Z,14.40
2022-11-08T09:54:08.653Z,14.40
2022-11-08T09:56:39.227Z,14.50
2022-11-08T09:59:14.493Z,14.60
2022-11-08T10:01:42.651Z,14.60
2022-11-08T10:04:22.069Z,14.70
2022-11-08T10:07:03.593Z,14.80
2022-11-08T10:09:48.269Z,14.90
2022-11-08T10:12:22.274Z,15.00
2022-11-08T10:15:03.510Z,15.10
2022-11-08T10:17:51.022Z,15.20
2022-11-08T10:20:28.407Z,15.30
2022-11-08T10:23:04.061Z,15.50
2022-11-08T10:25:39.613Z,15.60
2022-11-08T10:28:08.065Z,15.70
2022-11-08T10:30:40.933Z,15.80
2022-11-08T10:33:17.545Z,16.00
2022-11-08T10:35:50.396Z,16.10
2022-11-08T10:38:22.183Z,16.10
2022-11-08T10:40:58.676Z,16.10
2022-11-08T10:43:32.418Z,16.20
2022-11-08T10:46:00.192Z,16.20
2022-11-08T10:48:28.320Z,16.20
2022-11-08T10:50:56.400Z,16.10
2022-11-08T10:53:28.287Z,16.20
2022-11-08T10:56:00.965Z,16.10
2022-11-08T10:58:33.162Z,16.10
2022-11-08T11:01:04.543Z,16.10
2022-11-08T11:03:34.585Z,16.10
2022-11-08T11:06:04.590Z,16.20
2022-11-08T11:08:34.461Z,16.20
2022-11-08T11:11:23.923Z,16.30
2022-11-08T11:14:08.811Z,16.50
2022-11-08T11:16:38.282Z,16.80
2022-11-08T11:19:07.482Z,17.00
2022-11-08T11:21:38.047Z,17.20
2022-11-08T11:24:12.025Z,17.40
2022-11-08T11:26:46.260Z,17.50
2022-11-08T11:29:19.592Z,17.50
2022-11-08T11:31:49.440Z,17.50
2022-11-08T11:34:39.360Z,17.60
2022-11-08T11:37:19.019Z,17.80
2022-11-08T11:39:56.004Z,17.90
2022-11-08T11:42:45.787Z,17.80
2022-11-08T11:45:19.563Z,17.80
2022-11-08T11:47:53.046Z,17.80
2022-11-08T11:50:29.956Z,17.80
2022-11-08T11:52:59.371Z,17.80
2022-11-08T11:55:43.550Z,17.80
2022-11-08T11:58:26.562Z,17.90
2022-11-08T12:01:02.920Z,18.00
2022-11-08T12:03:41.171Z,18.10
2022-11-08T12:06:28.325Z,18.10
2022-11-08T12:09:12.583Z,18.20
2022-11-08T12:11:52.826Z,18.10
2022-11-08T12:14:36.527Z,18.10
2022-11-08T12:17:20.046Z,18.00
2022-11-08T12:20:03.651Z,17.90
2022-11-08T12:22:48.923Z,18.00
2022-11-08T12:25:24.305Z,18.10
2022-11-08T12:28:04.790Z,18.00
2022-11-08T12:30:38.979Z,18.00
2022-11-08T12:33:21.162Z,18.10
2022-11-08T12:36:01.955Z,18.10
2022-11-08T12:38:35.179Z,18.20
2022-11-08T12:41:11.647Z,18.10
2022-11-08T12:44:05.725Z,17.90
2022-11-08T12:46:38.960Z,18.00
2022-11-08T12:49:22.799Z,18.10
2022-11-08T12:52:03.867Z,18.20
2022-11-08T12:54:37.248Z,18.20
2022-11-08T12:57:11.143Z,18.10
2022-11-08T12:59:43.714Z,18.10
2022-11-08T13:02:18.390Z,17.90
2022-11-08T13:04:56.117Z,17.90
2022-11-08T13:07:35.349Z,17.90
2022-11-08T13:10:12.817Z,17.90
2022-11-08T13:13:03.535Z,17.90
2022-11-08T13:15:32.610Z,17.90
2022-11-08T13:18:25.178Z,17.90
2022-11-08T13:20:53.158Z,17.90
2022-11-08T13:23:27.403Z,17.80
2022-11-08T13:25:58.142Z,17.80
2022-11-08T13:28:43.061Z,17.90
2022-11-08T13:31:27.527Z,17.90
2022-11-08T13:34:15.531Z,17.80
2022-11-08T13:36:53.264Z,17.80
2022-11-08T13:39:39.560Z,17.70
2022-11-08T13:42:31.203Z,17.70
2022-11-08T13:45:14.174Z,17.60
2022-11-08T13:48:00.258Z,17.60
2022-11-08T13:50:51.166Z,17.60
2022-11-08T13:53:46.463Z,17.60
2022-11-08T13:56:44.004Z,17.50
2022-11-08T13:59:41.493Z,17.50
2022-11-08T14:02:31.392Z,17.60
2022-11-08T14:05:22.779Z,17.60
2022-11-08T14:08:09.658Z,17.60
2022-11-08T14:10:48.436Z,17.80
2022-11-08T14:13:22.418Z,17.80
2022-11-08T14:15:55.652Z,17.80
2022-11-08T14:18:28.334Z,17.80
2022-11-08T14:20:57.858Z,17.70
2022-11-08T14:23:29.838Z,17.70
2022-11-08T14:26:01.306Z,17.80
2022-11-08T14:28:32.949Z,17.60
2022-11-08T14:31:02.815Z,17.70
2022-11-08T14:33:34.039Z,17.60
2022-11-08T14:36:07.193Z,17.50
2022-11-08T14:38:38.097Z,17.40
2022-11-08T14:41:07.712Z,17.30
2022-11-08T14:43:45.711Z,17.20
2022-11-08T14:46:15.275Z,17.00
2022-11-08T14:48:50.302Z,17.00
2022-11-08T14:51:20.608Z,16.90
2022-11-08T14:53:50.449Z,16.90
2022-11-08T14:56:20.710Z,16.90
2022-11-08T14:58:50.418Z,16.70
2022-11-08T15:01:22.088Z,16.60
2022-11-08T15:03:55.576Z,16.50
2022-11-08T15:06:31.436Z,16.40
2022-11-08T15:08:59.779Z,16.40
2022-11-08T15:11:30.042Z,16.30
2022-11-08T15:14:01.827Z,16.20
2022-11-08T15:16:40.054Z,16.20
2022-11-08T15:19:33.136Z,16.10
2022-11-08T15:22:04.076Z,16.00
2022-11-08T15:24:37.185Z,15.90
2022-11-08T15:27:09.012Z,15.80
2022-11-08T15:29:53.169Z,15.60
2022-11-08T15:32:23.486Z,15.60
2022-11-08T15:34:55.116Z,15.50
2022-11-08T15:37:29.692Z,15.30
2022-11-08T15:40:01.135Z,15.30
2022-11-08T15:42:29.344Z,15.20
2022-11-08T15:45:00.580Z,15.10
2022-11-08T15:47:46.017Z,14.90
2022-11-08T15:50:17.518Z,14.80
2022-11-08T15:52:48.730Z,14.80
2022-11-08T15:55:18.953Z,14.70
2022-11-08T15:57:48.532Z,14.60
2022-11-08T16:00:19.219Z,14.60
2022-11-08T16:02:47.550Z,14.40
2022-11-08T16:05:17.375Z,14.40
2022-11-08T16:07:46.917Z,14.30
2022-11-08T16:10:17.395Z,14.20
2022-11-08T16:12:46.855Z,14.10
2022-11-08T16:15:16.867Z,14.00
2022-11-08T16:17:44.967Z,14.00
2022-11-08T16:20:26.803Z,14.00
2022-11-08T16:22:56.604Z,14.00
2022-11-08T16:25:25.869Z,13.90
2022-11-08T16:27:56.829Z,13.90
2022-11-08T16:30:25.400Z,13.90
2022-11-08T16:32:53.265Z,13.90
2022-11-08T16:35:21.008Z,13.80
2022-11-08T16:37:49.012Z,13.70
2022-11-08T16:40:20.162Z,13.70
2022-11-08T16:42:49.226Z,13.70
2022-11-08T16:45:27.976Z,13.70
2022-11-08T16:48:06.340Z,13.60
2022-11-08T16:50:34.080Z,13.60
2022-11-08T16:53:01.841Z,13.70
2022-11-08T16:55:30.814Z,13.70
2022-11-08T16:57:58.547Z,13.70
2022-11-08T17:00:26.237Z,13.70
2022-11-08T17:02:54.986Z,13.70
2022-11-08T17:05:25.060Z,13.70
2022-11-08T17:07:53.665Z,13.80
2022-11-08T17:10:23.701Z,13.80
2022-11-08T17:12:53.324Z,13.70
2022-11-08T17:15:22.886Z,13.60
2022-11-08T17:17:51.811Z,13.60
2022-11-08T17:20:21.117Z,13.60
2022-11-08T17:22:54.692Z,13.50
2022-11-08T17:25:24.069Z,13.50
2022-11-08T17:27:53.708Z,13.40
2022-11-08T17:30:26.459Z,13.40
2022-11-08T17:32:54.820Z,13.30
2022-11-08T17:35:22.572Z,13.30
2022-11-08T17:37:50.320Z,13.20
2022-11-08T17:40:18.112Z,13.20
2022-11-08T17:42:46.508Z,13.10
2022-11-08T17:45:15.535Z,13.20
2022-11-08T17:47:43.249Z,13.30
2022-11-08T17:50:11.613Z,13.30
2022-11-08T17:52:39.428Z,13.40
2022-11-08T17:55:08.080Z,13.50
2022-11-08T17:57:35.800Z,13.50
2022-11-08T18:00:08.636Z,13.50
2022-11-08T18:02:45.521Z,13.50
2022-11-08T18:05:13.204Z,13.60
2022-11-08T18:07:41.101Z,13.70
2022-11-08T18:10:09.816Z,13.80
2022-11-08T18:12:37.852Z,13.80
2022-11-08T18:15:06.247Z,13.90
2022-11-08T18:17:33.939Z,14.00
2022-11-08T18:20:02.964Z,14.00
2022-11-08T18:22:30.704Z,14.10
2022-11-08T18:24:58.452Z,14.10
2022-11-08T18:27:26.193Z,14.10
2022-11-08T18:29:53.928Z,14.10
2022-11-08T18:32:21.676Z,14.00
2022-11-08T18:34:49.344Z,14.10
2022-11-08T18:37:18.447Z,14.10
2022-11-08T18:39:46.185Z,14.10
2022-11-08T18:42:14.067Z,14.10
2022-11-08T18:44:41.784Z,14.00
2022-11-08T18:47:09.843Z,14.00
2022-11-08T18:49:37.532Z,14.00
2022-11-08T18:52:05.677Z,14.00
2022-11-08T18:54:34.727Z,14.00
2022-11-08T18:57:02.935Z,14.00
2022-11-08T18:59:30.821Z,14.10
2022-11-08T19:01:58.803Z,14.10
2022-11-08T19:04:26.736Z,14.10
2022-11-08T19:06:55.004Z,14.10
2022-11-08T19:09:23.171Z,14.10
2022-11-08T19:11:53.440Z,14.00
2022-11-08T19:14:21.214Z,14.00
2022-11-08T19:16:51.961Z,14.00
2022-11-08T19:19:19.664Z,14.00
2022-11-08T19:21:47.366Z,13.90
2022-11-08T19:24:15.133Z,13.70
2022-11-08T19:26:42.817Z,13.70
2022-11-08T19:29:14.106Z,13.80
2022-11-08T19:31:44.872Z,13.90
2022-11-08T19:34:13.168Z,13.90
2022-11-08T19:36:43.534Z,13.90
2022-11-08T19:39:13.223Z,14.00
2022-11-08T19:41:51.558Z,14.00
2022-11-08T19:44:21.704Z,13.90
2022-11-08T19:46:52.169Z,13.90
2022-11-08T19:49:25.164Z,13.90
2022-11-08T19:51:56.538Z,13.90
2022-11-08T19:54:28.222Z,13.90
2022-11-08T19:57:06.560Z,13.90
2022-11-08T19:59:35.696Z,14.00
2022-11-08T20:02:04.783Z,14.00
2022-11-08T20:04:34.302Z,14.00
2022-11-08T20:07:02.672Z,13.90
2022-11-08T20:09:31.039Z,13.90
2022-11-08T20:11:58.961Z,13.90
2022-11-08T20:14:27.765Z,14.00
2022-11-08T20:16:57.389Z,14.00
2022-11-08T20:19:27.514Z,14.00
2022-11-08T20:21:56.716Z,14.00
2022-11-08T20:24:25.215Z,14.10
2022-11-08T20:26:55.606Z,14.10
2022-11-08T20:29:25.482Z,14.10
2022-11-08T20:31:54.499Z,14.20
2022-11-08T20:34:25.782Z,14.20
2022-11-08T20:36:54.214Z,14.20
2022-11-08T20:39:24.220Z,14.10
2022-11-08T20:41:55.367Z,14.00
2022-11-08T20:44:24.955Z,14.00
2022-11-08T20:46:54.288Z,14.00
2022-11-08T20:49:23.809Z,14.00
2022-11-08T20:51:56.165Z,14.00
2022-11-08T20:54:24.297Z,14.00
2022-11-08T20:56:56.903Z,14.00
2022-11-08T20:59:27.245Z,14.00
2022-11-08T21:01:59.576Z,14.00
2022-11-08T21:04:32.340Z,13.90
2022-11-08T21:08:00.291Z,14.00
2022-11-08T21:10:07.698Z,14.00
2022-11-08T21:12:44.481Z,14.00
2022-11-08T21:15:14.858Z,13.80
2022-11-08T21:17:46.569Z,13.80
2022-11-08T21:20:17.673Z,13.80
2022-11-08T21:22:46.002Z,13.70
2022-11-08T21:25:14.244Z,13.70
2022-11-08T21:28:26.335Z,13.60
2022-11-08T21:32:00.360Z,13.60
2022-11-08T21:35:34.714Z,13.30
2022-11-08T21:39:07.195Z,13.40
2022-11-08T21:42:46.084Z,13.40
2022-11-08T21:46:20.837Z,13.50
2022-11-08T21:49:52.279Z,13.50
2022-11-08T21:53:23.694Z,13.50
2022-11-08T21:56:55.123Z,13.50
2022-11-08T22:00:26.648Z,13.60
2022-11-08T22:03:58.132Z,13.60
2022-11-08T22:07:29.634Z,13.60
2022-11-08T22:11:01.197Z,13.50
2022-11-08T22:14:32.655Z,13.60
2022-11-08T22:21:55.399Z,13.70
2022-11-08T22:25:26.802Z,13.80
2022-11-08T22:28:58.208Z,13.80
2022-11-08T22:32:29.634Z,13.60
2022-11-08T22:36:01.184Z,13.70
2022-11-08T22:39:32.594Z,13.70
2022-11-08T22:43:04.047Z,13.70
2022-11-08T22:46:35.495Z,13.60
2022-11-08T22:50:06.894Z,13.70
2022-11-08T22:53:38.277Z,13.60
2022-11-08T22:57:09.673Z,13.50
2022-11-08T23:00:44.328Z,13.40
2022-11-08T23:04:15.755Z,13.40
2022-11-08T23:07:47.224Z,13.30
2022-11-08T23:11:18.654Z,13.20
2022-11-08T23:14:50.032Z,13.20
2022-11-08T23:18:21.428Z,13.30
2022-11-08T23:21:52.876Z,13.40
2022-11-08T23:25:24.263Z,13.50
2022-11-08T23:28:55.706Z,13.50
2022-11-08T23:31:38.788Z,13.40
2022-11-08T23:34:06.505Z,13.30
2022-11-08T23:36:34.229Z,13.40
2022-11-08T23:39:01.905Z,13.40
2022-11-08T23:41:43.584Z,13.40
2022-11-08T23:44:25.645Z,13.40
2022-11-08T23:46:56.184Z,13.50
2022-11-08T23:49:24.529Z,13.50
2022-11-08T23:51:52.901Z,13.50
2022-11-08T23:54:20.821Z,13.50
2022-11-08T23:56:48.799Z,13.50
2022-11-08T23:59:16.931Z,13.50
